Time;durP1;ratioP1;P1;durP2;ratioP2;P2;SDS_P1;SDS_P2;PMS_P1;PMS_P2;Temp;Humidity;BMP_temperature;BMP_pressure;BME280_temperature;BME280_humidity;BME280_pressure;Samples;Min_cycle;Max_cycle;Signal;HPM_P1;HPM_P2
2021/09/15 00:00:06;;;;;;;3.67;2.70;;;24.50;58.50;;;;;;4944658;29;20380;-68
2021/09/15 00:02:32;;;;;;;4.32;2.80;;;24.50;58.50;;;;;;4944721;29;20441;-67
2021/09/15 00:04:57;;;;;;;3.40;2.90;;;24.40;58.50;;;;;;4945029;29;20398;-71
2021/09/15 00:07:23;;;;;;;3.58;2.70;;;24.40;58.50;;;;;;4944861;29;21088;-70
2021/09/15 00:09:49;;;;;;;3.67;2.87;;;24.40;58.50;;;;;;4944937;29;20402;-72
2021/09/15 00:12:14;;;;;;;3.75;2.97;;;24.50;58.50;;;;;;4943196;28;20882;-66
2021/09/15 00:14:40;;;;;;;3.42;3.10;;;24.40;58.50;;;;;;4944565;29;20906;-71
2021/09/15 00:17:06;;;;;;;2.90;2.60;;;24.50;58.50;;;;;;4944274;29;20572;-71
2021/09/15 00:19:32;;;;;;;3.00;2.50;;;24.40;58.50;;;;;;4944778;29;20886;-71
2021/09/15 00:21:57;;;;;;;3.88;2.67;;;24.40;58.40;;;;;;4943081;29;20410;-72
2021/09/15 00:24:23;;;;;;;3.95;2.70;;;24.40;58.50;;;;;;4944239;29;20405;-71
2021/09/15 00:26:49;;;;;;;3.20;2.70;;;24.40;58.40;;;;;;4944511;29;20421;-71
2021/09/15 00:29:14;;;;;;;3.00;2.70;;;24.40;58.40;;;;;;4944777;29;20879;-71
2021/09/15 00:31:40;;;;;;;2.87;2.43;;;24.40;58.40;;;;;;4944601;29;20420;-68
2021/09/15 00:34:06;;;;;;;3.30;2.80;;;24.40;58.40;;;;;;4944228;29;20402;-69
2021/09/15 00:36:32;;;;;;;3.23;2.40;;;24.40;58.40;;;;;;4943888;28;20409;-71
2021/09/15 00:38:57;;;;;;;2.83;2.42;;;24.40;58.40;;;;;;4944454;29;20406;-67
2021/09/15 00:41:23;;;;;;;3.20;2.90;;;24.40;58.40;;;;;;4944614;29;20401;-72
2021/09/15 00:44:00;;;;;;;2.70;2.40;;;24.40;58.40;;;;;;4944224;29;20405;-69
2021/09/15 00:46:28;;;;;;;3.65;2.60;;;24.40;58.40;;;;;;4944310;29;20747;-71
2021/09/15 00:48:54;;;;;;;3.08;2.67;;;24.40;58.40;;;;;;4944589;28;20464;-72
2021/09/15 00:51:20;;;;;;;3.03;2.70;;;24.30;58.30;;;;;;4944244;29;20406;-71
2021/09/15 00:53:46;;;;;;;2.97;2.67;;;24.40;58.40;;;;;;4944544;29;20409;-70
2021/09/15 00:56:12;;;;;;;2.97;2.53;;;24.30;58.40;;;;;;4943927;29;20393;-68
2021/09/15 00:58:38;;;;;;;2.90;2.60;;;24.30;58.30;;;;;;4944232;29;20413;-70
2021/09/15 01:01:04;;;;;;;2.90;2.60;;;24.40;58.40;;;;;;4944452;29;20389;-72
2021/09/15 01:03:30;;;;;;;3.00;2.70;;;24.30;58.40;;;;;;4944044;29;20476;-69
2021/09/15 01:05:56;;;;;;;3.10;2.80;;;24.30;58.40;;;;;;4944316;28;20405;-66
2021/09/15 01:08:24;;;;;;;3.60;2.78;;;24.30;58.30;;;;;;4943734;29;20405;-71
2021/09/15 01:10:51;;;;;;;3.00;2.58;;;24.30;58.30;;;;;;4944204;29;20425;-71
2021/09/15 01:13:17;;;;;;;2.80;2.42;;;24.30;58.30;;;;;;4944284;29;20469;-71
2021/09/15 01:15:42;;;;;;;3.35;2.60;;;24.30;58.30;;;;;;4943959;29;20481;-68
2021/09/15 01:18:19;;;;;;;2.90;2.60;;;24.30;58.30;;;;;;4943875;29;20578;-68
2021/09/15 01:20:45;;;;;;;3.00;2.70;;;24.30;58.30;;;;;;4944057;29;20398;-71
2021/09/15 01:23:11;;;;;;;3.22;2.60;;;24.30;58.30;;;;;;4945235;28;20443;-66
2021/09/15 01:25:37;;;;;;;3.03;2.50;;;24.30;58.30;;;;;;4947742;29;20798;-72
2021/09/15 01:28:04;;;;;;;3.13;2.63;;;24.30;58.30;;;;;;4947229;29;20401;-72
2021/09/15 01:30:29;;;;;;;2.88;2.50;;;24.30;58.30;;;;;;4937695;29;20494;-66
2021/09/15 01:32:55;;;;;;;3.00;2.60;;;24.30;58.30;;;;;;4945845;29;20439;-70
2021/09/15 01:35:21;;;;;;;3.22;2.88;;;24.20;58.30;;;;;;4947395;29;20394;-70
2021/09/15 01:37:47;;;;;;;3.00;2.70;;;24.20;58.30;;;;;;4947516;29;20402;-72
2021/09/15 01:40:13;;;;;;;2.72;2.40;;;24.30;58.30;;;;;;4946976;29;20404;-70
2021/09/15 01:42:39;;;;;;;3.05;2.75;;;24.30;58.40;;;;;;4946964;29;20528;-68
2021/09/15 01:45:10;;;;;;;3.00;2.40;;;24.20;58.40;;;;;;4947322;29;20484;-67
2021/09/15 01:47:37;;;;;;;3.08;2.70;;;24.20;58.30;;;;;;4947105;29;20412;-72
2021/09/15 01:50:04;;;;;;;3.47;2.80;;;24.30;58.40;;;;;;4947364;29;20390;-71
2021/09/15 01:52:30;;;;;;;3.20;2.67;;;24.20;58.30;;;;;;4947463;28;20389;-71
2021/09/15 01:54:56;;;;;;;3.17;2.63;;;24.20;58.30;;;;;;4947181;29;20402;-68
2021/09/15 01:57:21;;;;;;;3.20;2.67;;;24.20;58.30;;;;;;4946828;29;20386;-70
2021/09/15 01:59:47;;;;;;;2.90;2.60;;;24.20;58.30;;;;;;4946840;28;20428;-68
2021/09/15 02:02:13;;;;;;;2.92;2.63;;;24.20;58.30;;;;;;4946683;29;20425;-65
2021/09/15 02:04:39;;;;;;;2.90;2.60;;;24.20;58.30;;;;;;4935495;29;20410;-71
2021/09/15 02:07:06;;;;;;;2.90;2.60;;;24.20;58.30;;;;;;4946764;29;20386;-70
2021/09/15 02:09:32;;;;;;;4.15;2.80;;;24.20;58.20;;;;;;4947043;29;20405;-70
2021/09/15 02:11:57;;;;;;;3.17;2.87;;;24.20;58.20;;;;;;4947249;29;20394;-68
2021/09/15 02:14:23;;;;;;;3.13;2.55;;;24.20;58.20;;;;;;4946507;29;20489;-69
2021/09/15 02:16:50;;;;;;;3.67;2.80;;;24.20;58.30;;;;;;4946357;29;20875;-71
2021/09/15 02:19:16;;;;;;;3.05;2.70;;;24.20;58.30;;;;;;4946761;29;20489;-71
2021/09/15 02:21:42;;;;;;;3.33;2.88;;;24.20;58.20;;;;;;4946692;29;20700;-72
2021/09/15 02:24:08;;;;;;;3.00;2.70;;;24.20;58.30;;;;;;4937942;29;20522;-71
2021/09/15 02:26:34;;;;;;;3.17;2.70;;;24.10;58.30;;;;;;4946451;29;20393;-71
2021/09/15 02:29:00;;;;;;;3.10;2.80;;;24.20;58.30;;;;;;4946303;29;20440;-71
2021/09/15 02:31:26;;;;;;;3.00;2.70;;;24.20;58.30;;;;;;4946511;29;20812;-67
2021/09/15 02:33:52;;;;;;;3.05;2.75;;;24.20;58.20;;;;;;4946531;28;20416;-70
2021/09/15 02:36:18;;;;;;;3.20;2.90;;;24.20;58.30;;;;;;4945661;29;20399;-65
2021/09/15 02:38:44;;;;;;;3.20;2.90;;;24.20;58.30;;;;;;4946553;29;20402;-72
2021/09/15 02:41:10;;;;;;;3.78;2.90;;;24.20;58.30;;;;;;4946194;29;20480;-71
2021/09/15 02:43:35;;;;;;;3.13;2.70;;;24.20;58.30;;;;;;4946078;29;20485;-71
2021/09/15 02:46:01;;;;;;;3.33;2.80;;;24.20;58.20;;;;;;4944670;28;20429;-69
2021/09/15 02:48:27;;;;;;;3.08;2.78;;;24.10;58.20;;;;;;4946054;29;20417;-72
2021/09/15 02:50:53;;;;;;;3.00;2.70;;;24.10;58.30;;;;;;4946237;29;20484;-71
2021/09/15 02:53:19;;;;;;;3.25;2.92;;;24.10;58.20;;;;;;4946178;29;20497;-71
2021/09/15 02:55:45;;;;;;;3.17;2.55;;;24.10;58.20;;;;;;4946518;29;20402;-72
2021/09/15 02:58:10;;;;;;;3.35;2.55;;;24.10;58.20;;;;;;4945729;29;21198;-71
2021/09/15 03:00:36;;;;;;;3.00;2.70;;;24.10;58.20;;;;;;4946022;29;20429;-72
2021/09/15 03:03:03;;;;;;;3.03;2.60;;;24.10;58.20;;;;;;4945827;29;20520;-71
2021/09/15 03:05:30;;;;;;;3.63;2.75;;;24.10;58.30;;;;;;4946215;29;20401;-71
2021/09/15 03:07:55;;;;;;;3.10;2.80;;;24.10;58.30;;;;;;4945942;29;20924;-72
2021/09/15 03:10:21;;;;;;;3.80;2.88;;;24.00;58.30;;;;;;4945314;29;20397;-65
2021/09/15 03:12:47;;;;;;;2.70;2.50;;;24.10;58.30;;;;;;4945978;29;20438;-71
2021/09/15 03:15:13;;;;;;;3.45;2.85;;;24.10;58.40;;;;;;4934510;29;20461;-71
2021/09/15 03:17:39;;;;;;;3.67;3.00;;;24.10;58.30;;;;;;4945458;29;20887;-70
2021/09/15 03:20:05;;;;;;;3.35;2.90;;;24.10;58.30;;;;;;4945543;29;20401;-68
2021/09/15 03:22:31;;;;;;;3.30;2.97;;;24.10;58.30;;;;;;4945137;29;20436;-65
2021/09/15 03:24:57;;;;;;;3.30;2.75;;;24.10;58.30;;;;;;4945655;28;20401;-71
2021/09/15 03:27:23;;;;;;;3.00;2.50;;;24.10;58.40;;;;;;4945444;29;20402;-71
2021/09/15 03:29:48;;;;;;;3.45;2.75;;;24.00;58.20;;;;;;4945600;29;20398;-71
2021/09/15 03:32:14;;;;;;;3.10;2.80;;;24.00;58.10;;;;;;4944941;29;20409;-71
2021/09/15 03:34:40;;;;;;;2.55;2.30;;;24.00;58.10;;;;;;4945347;29;20797;-72
2021/09/15 03:37:05;;;;;;;3.07;2.77;;;24.10;58.20;;;;;;4945213;29;20401;-72
2021/09/15 03:39:31;;;;;;;2.78;2.42;;;24.00;58.20;;;;;;4945537;29;20421;-71
2021/09/15 03:41:57;;;;;;;3.50;2.90;;;24.00;58.20;;;;;;4945041;29;20410;-70
2021/09/15 03:44:23;;;;;;;3.20;2.90;;;24.00;58.20;;;;;;4944700;29;20432;-71
2021/09/15 03:46:49;;;;;;;2.97;2.67;;;24.10;58.20;;;;;;4944479;28;20485;-68
2021/09/15 03:49:14;;;;;;;3.10;2.70;;;24.00;58.20;;;;;;4945089;29;20492;-69
2021/09/15 03:51:40;;;;;;;3.20;2.70;;;24.00;58.20;;;;;;4945062;29;20398;-71
2021/09/15 03:54:05;;;;;;;3.15;2.85;;;24.00;58.30;;;;;;4945071;29;20810;-70
2021/09/15 03:56:31;;;;;;;3.20;2.90;;;24.00;58.20;;;;;;4944762;29;21283;-71
2021/09/15 03:58:57;;;;;;;3.15;2.85;;;24.00;58.20;;;;;;4944640;29;20473;-70
2021/09/15 04:01:22;;;;;;;3.40;2.83;;;24.00;58.20;;;;;;4944675;29;20502;-71
2021/09/15 04:03:48;;;;;;;3.13;2.70;;;24.00;58.20;;;;;;4944919;29;20427;-71
2021/09/15 04:06:14;;;;;;;2.85;2.55;;;24.00;58.40;;;;;;4944789;29;20410;-71
2021/09/15 04:08:39;;;;;;;3.47;2.80;;;24.00;58.30;;;;;;4944657;29;20406;-68
2021/09/15 04:11:05;;;;;;;3.05;2.75;;;24.00;58.30;;;;;;4944780;29;20510;-68
2021/09/15 04:13:31;;;;;;;3.30;2.73;;;24.00;58.30;;;;;;4944217;29;20911;-69
2021/09/15 04:15:56;;;;;;;3.28;2.97;;;24.00;58.40;;;;;;4943772;28;20398;-70
2021/09/15 04:18:22;;;;;;;4.38;2.67;;;24.00;58.30;;;;;;4943685;28;20422;-65
2021/09/15 04:20:48;;;;;;;4.30;2.90;;;24.00;58.50;;;;;;4945801;28;20390;-68
2021/09/15 04:23:46;;;;;;;5.10;2.95;;;24.00;58.70;;;;;;4944051;29;20432;-72
2021/09/15 04:31:30;;;;;;;5.88;2.85;;;24.10;60.00;;;;;;4942757;28;20907;-72
2021/09/15 04:33:58;;;;;;;3.83;2.63;;;24.20;59.50;;;;;;4944861;28;20910;-70
2021/09/15 04:36:23;;;;;;;4.57;2.90;;;24.20;59.60;;;;;;4943914;29;20878;-68
2021/09/15 04:38:50;;;;;;;7.10;2.97;;;24.20;59.40;;;;;;4944233;29;20401;-65
2021/09/15 04:41:17;;;;;;;4.05;3.00;;;24.10;59.10;;;;;;4942926;29;20480;-67
2021/09/15 04:43:42;;;;;;;4.50;2.92;;;24.20;60.20;;;;;;4944275;29;20468;-72
2021/09/15 04:46:08;;;;;;;5.00;2.80;;;24.20;60.10;;;;;;4944021;29;20484;-72
2021/09/15 04:48:34;;;;;;;4.07;2.93;;;24.30;60.40;;;;;;4944027;29;20945;-72
2021/09/15 04:51:00;;;;;;;4.25;2.70;;;24.30;60.40;;;;;;4944270;29;20451;-69
2021/09/15 04:53:25;;;;;;;4.53;2.80;;;24.20;59.40;;;;;;4945929;29;20397;-68
2021/09/15 04:55:51;;;;;;;8.80;3.33;;;24.20;59.10;;;;;;4947533;29;20861;-69
2021/09/15 04:58:17;;;;;;;9.93;4.17;;;24.10;58.50;;;;;;4945732;28;20756;-71
2021/09/15 05:00:43;;;;;;;9.80;3.40;;;24.10;58.50;;;;;;4947569;29;20484;-71
2021/09/15 05:03:08;;;;;;;8.00;3.70;;;24.10;58.40;;;;;;4948730;29;20457;-71
2021/09/15 05:05:34;;;;;;;6.47;3.60;;;24.10;57.90;;;;;;4948029;29;20409;-72
2021/09/15 05:08:00;;;;;;;7.10;3.80;;;24.10;58.00;;;;;;4947839;29;20405;-69
2021/09/15 05:10:25;;;;;;;6.90;3.72;;;24.10;57.30;;;;;;4947546;29;20810;-66
2021/09/15 05:12:56;;;;;;;7.53;3.90;;;24.10;57.30;;;;;;4947433;29;20524;-71
2021/09/15 05:15:22;;;;;;;5.43;3.40;;;24.10;56.50;;;;;;4947790;29;20968;-71
2021/09/15 05:17:49;;;;;;;9.40;3.53;;;24.00;56.90;;;;;;4947506;29;20433;-69
2021/09/15 05:20:17;;;;;;;6.10;3.17;;;24.00;56.50;;;;;;4947585;29;20390;-72
2021/09/15 05:22:47;;;;;;;6.73;3.53;;;23.90;56.80;;;;;;4947140;29;20413;-73
2021/09/15 05:25:14;;;;;;;6.68;3.53;;;23.90;56.60;;;;;;4947186;29;20468;-71
2021/09/15 05:27:40;;;;;;;9.73;3.90;;;23.90;56.90;;;;;;4947818;29;20386;-72
2021/09/15 05:30:07;;;;;;;6.73;3.80;;;23.90;56.70;;;;;;4947762;29;20896;-72
2021/09/15 05:32:33;;;;;;;6.03;3.60;;;23.90;56.30;;;;;;4946815;29;20492;-72
2021/09/15 05:34:58;;;;;;;5.57;3.70;;;23.90;56.40;;;;;;4947501;29;20490;-70
2021/09/15 05:37:24;;;;;;;7.25;3.67;;;23.90;56.00;;;;;;4946851;29;20402;-68
2021/09/15 05:39:49;;;;;;;6.13;3.50;;;23.80;55.70;;;;;;4947229;29;20455;-67
2021/09/15 05:42:15;;;;;;;4.77;3.50;;;23.80;55.70;;;;;;4946937;29;20633;-70
2021/09/15 05:44:41;;;;;;;5.03;3.30;;;23.80;55.80;;;;;;4947022;29;20767;-70
2021/09/15 05:47:06;;;;;;;5.07;3.23;;;23.80;55.80;;;;;;4947289;29;20394;-71
2021/09/15 05:49:32;;;;;;;6.53;3.30;;;23.80;55.80;;;;;;4947254;29;20449;-69
2021/09/15 05:51:58;;;;;;;6.37;3.80;;;23.80;55.80;;;;;;4944976;29;20861;-71
2021/09/15 05:54:23;;;;;;;4.72;3.10;;;23.80;55.90;;;;;;4939710;29;20409;-70
2021/09/15 05:56:49;;;;;;;4.40;3.00;;;23.80;56.00;;;;;;4947098;29;20409;-70
2021/09/15 05:59:15;;;;;;;3.77;2.90;;;23.80;56.10;;;;;;4946772;29;20397;-67
2021/09/15 06:01:40;;;;;;;4.93;3.00;;;23.80;56.10;;;;;;4947063;29;20401;-71
2021/09/15 06:04:06;;;;;;;4.60;3.40;;;23.80;56.20;;;;;;4946999;29;20827;-70
2021/09/15 06:06:31;;;;;;;4.28;3.10;;;23.80;56.30;;;;;;4946452;29;20771;-67
2021/09/15 06:08:57;;;;;;;4.43;3.20;;;23.80;56.40;;;;;;4944995;28;20425;-71
2021/09/15 06:11:23;;;;;;;4.30;3.27;;;23.80;56.50;;;;;;4945229;29;20401;-70
2021/09/15 06:13:49;;;;;;;4.13;3.30;;;23.80;56.60;;;;;;4946736;29;20779;-70
2021/09/15 06:16:15;;;;;;;3.85;3.25;;;23.80;56.60;;;;;;4946853;29;20404;-67
2021/09/15 06:18:41;;;;;;;4.47;3.20;;;23.80;56.70;;;;;;4946262;29;20425;-71
2021/09/15 06:21:07;;;;;;;3.83;3.10;;;23.80;56.70;;;;;;4945155;29;20414;-69
2021/09/15 06:23:34;;;;;;;4.00;2.90;;;23.80;56.80;;;;;;4946584;29;21050;-71
2021/09/15 06:26:00;;;;;;;3.73;3.10;;;23.80;56.80;;;;;;4961302;28;20890;-68
2021/09/15 06:28:27;;;;;;;4.50;3.00;;;23.80;56.90;;;;;;4946321;29;20408;-69
2021/09/15 06:30:53;;;;;;;3.72;2.88;;;23.80;56.90;;;;;;4946376;29;20409;-71
2021/09/15 06:33:18;;;;;;;4.15;3.00;;;23.80;57.00;;;;;;4946160;29;20402;-70
2021/09/15 06:35:44;;;;;;;4.90;2.93;;;23.80;57.10;;;;;;4946543;29;20437;-71
2021/09/15 06:38:11;;;;;;;4.68;2.70;;;23.80;57.10;;;;;;4946318;29;20405;-71
2021/09/15 06:40:37;;;;;;;3.88;3.03;;;23.80;57.10;;;;;;4945758;28;20509;-66
2021/09/15 06:43:03;;;;;;;4.43;3.05;;;23.80;57.20;;;;;;4945940;29;20665;-70
2021/09/15 06:45:28;;;;;;;5.28;3.10;;;23.80;57.30;;;;;;4946343;29;20401;-70
2021/09/15 06:47:54;;;;;;;3.37;3.07;;;23.80;57.30;;;;;;4946532;29;20482;-71
2021/09/15 06:50:20;;;;;;;3.88;2.90;;;23.80;57.40;;;;;;4945730;29;20469;-66
2021/09/15 06:52:45;;;;;;;4.07;3.00;;;23.80;57.40;;;;;;4945348;29;20472;-71
2021/09/15 06:55:11;;;;;;;3.53;3.20;;;23.80;57.50;;;;;;4945747;29;20394;-71
2021/09/15 06:57:37;;;;;;;4.00;3.20;;;23.80;57.50;;;;;;4946102;29;20490;-70
2021/09/15 07:00:08;;;;;;;4.25;3.30;;;23.90;57.60;;;;;;4945815;29;20401;-69
2021/09/15 07:02:33;;;;;;;4.07;3.10;;;23.90;57.70;;;;;;4945136;29;20449;-71
2021/09/15 07:04:59;;;;;;;4.10;3.05;;;23.90;57.70;;;;;;4945788;29;20887;-71
2021/09/15 07:07:25;;;;;;;3.53;3.00;;;23.90;57.80;;;;;;4945723;28;20417;-70
2021/09/15 07:09:51;;;;;;;3.78;3.03;;;23.90;57.80;;;;;;4945725;28;20517;-70
2021/09/15 07:12:16;;;;;;;3.90;3.00;;;23.90;57.90;;;;;;4945797;29;20466;-71
2021/09/15 07:14:42;;;;;;;4.57;3.78;;;23.90;58.00;;;;;;4944923;29;20405;-68
2021/09/15 07:17:08;;;;;;;4.37;3.13;;;23.90;58.20;;;;;;4945708;29;20437;-71
2021/09/15 07:19:33;;;;;;;5.40;3.40;;;23.90;58.20;;;;;;4945595;29;20398;-71
2021/09/15 07:21:59;;;;;;;4.18;3.28;;;23.90;58.10;;;;;;4945536;28;20452;-69
2021/09/15 07:24:25;;;;;;;4.43;3.17;;;23.90;58.30;;;;;;4945245;29;20406;-70
2021/09/15 07:26:52;;;;;;;4.10;3.00;;;23.90;58.30;;;;;;4945415;29;20432;-70
2021/09/15 07:29:18;;;;;;;3.90;3.20;;;24.00;58.30;;;;;;4936674;29;20402;-71
2021/09/15 07:31:43;;;;;;;4.30;3.30;;;24.00;58.30;;;;;;4943776;29;20949;-69
2021/09/15 07:34:09;;;;;;;3.65;2.92;;;24.00;58.30;;;;;;4935883;29;20397;-71
2021/09/15 07:36:35;;;;;;;4.40;3.60;;;24.00;58.30;;;;;;4944694;29;20405;-70
2021/09/15 07:39:02;;;;;;;4.10;3.15;;;24.00;58.30;;;;;;4945450;29;20405;-70
2021/09/15 07:41:28;;;;;;;4.00;3.10;;;24.00;58.30;;;;;;4933982;29;20395;-70
2021/09/15 07:43:53;;;;;;;3.73;3.10;;;24.10;58.30;;;;;;4944866;28;20457;-66
2021/09/15 07:46:21;;;;;;;3.70;2.97;;;24.10;58.40;;;;;;4945028;29;20981;-71
2021/09/15 07:48:51;;;;;;;3.95;3.10;;;24.10;58.40;;;;;;4944478;29;20433;-71
2021/09/15 07:51:18;;;;;;;3.90;3.20;;;24.10;58.30;;;;;;4944688;29;20530;-71
2021/09/15 07:53:44;;;;;;;3.42;2.97;;;24.10;58.30;;;;;;4932115;29;20406;-70
2021/09/15 07:56:09;;;;;;;4.32;3.47;;;24.10;58.30;;;;;;4944984;29;20390;-70
2021/09/15 07:58:35;;;;;;;4.23;3.00;;;24.10;58.30;;;;;;4944307;29;20417;-66
2021/09/15 08:01:01;;;;;;;3.47;3.17;;;24.10;58.20;;;;;;4944854;29;20401;-71
2021/09/15 08:03:27;;;;;;;3.55;2.95;;;24.10;58.20;;;;;;4944553;29;20430;-68
2021/09/15 08:05:54;;;;;;;4.03;3.35;;;24.10;58.20;;;;;;4944889;29;20394;-70
2021/09/15 08:08:20;;;;;;;4.22;3.13;;;24.10;58.20;;;;;;4944295;29;20444;-71
2021/09/15 08:10:47;;;;;;;3.80;3.20;;;24.10;58.20;;;;;;4944084;29;21244;-69
2021/09/15 08:13:12;;;;;;;3.38;2.97;;;24.20;58.20;;;;;;4944862;29;20410;-72
2021/09/15 08:15:38;;;;;;;3.47;3.10;;;24.20;58.20;;;;;;4944956;29;20394;-67
2021/09/15 08:18:03;;;;;;;3.53;3.00;;;24.20;58.10;;;;;;4944595;29;20422;-71
2021/09/15 08:20:30;;;;;;;3.80;3.10;;;24.20;58.00;;;;;;4944374;29;20397;-71
2021/09/15 08:22:55;;;;;;;4.00;3.40;;;24.20;58.00;;;;;;4944521;29;20898;-70
2021/09/15 08:25:22;;;;;;;3.50;3.05;;;24.20;58.00;;;;;;4944558;29;20406;-68
2021/09/15 08:27:48;;;;;;;3.80;3.10;;;24.20;57.90;;;;;;4944483;29;20406;-68
2021/09/15 08:30:14;;;;;;;3.30;3.00;;;24.20;57.90;;;;;;4944443;29;20430;-71
2021/09/15 08:32:40;;;;;;;3.58;2.80;;;24.20;57.80;;;;;;4943359;29;20467;-70
2021/09/15 08:35:07;;;;;;;4.20;2.95;;;24.30;57.80;;;;;;4944724;29;20437;-70
2021/09/15 08:37:37;;;;;;;3.10;2.80;;;24.30;57.80;;;;;;4944294;28;20448;-69
2021/09/15 08:40:08;;;;;;;3.33;3.00;;;24.30;57.80;;;;;;4944660;29;20401;-69
2021/09/15 08:42:36;;;;;;;3.47;2.85;;;24.30;57.80;;;;;;4944057;29;20838;-71
2021/09/15 08:45:09;;;;;;;3.72;3.22;;;24.20;57.70;;;;;;4944002;29;20402;-71
2021/09/15 08:47:44;;;;;;;3.40;3.08;;;24.30;57.70;;;;;;4944496;29;20394;-69
2021/09/15 08:50:11;;;;;;;3.67;3.17;;;24.20;57.70;;;;;;4944317;29;20464;-63
2021/09/15 08:52:38;;;;;;;3.40;3.10;;;24.30;57.70;;;;;;4943976;28;20409;-68
2021/09/15 08:55:04;;;;;;;3.10;2.80;;;24.30;57.60;;;;;;4944295;29;20465;-68
2021/09/15 08:57:30;;;;;;;3.30;3.00;;;24.30;57.70;;;;;;4944145;29;20437;-66
2021/09/15 08:59:56;;;;;;;3.50;3.10;;;24.30;57.60;;;;;;4944352;29;20874;-70
2021/09/15 09:02:22;;;;;;;3.47;3.05;;;24.30;57.60;;;;;;4944191;29;20429;-69
2021/09/15 09:04:54;;;;;;;3.40;3.10;;;24.30;57.60;;;;;;4943999;29;20432;-70
2021/09/15 09:07:22;;;;;;;3.70;3.30;;;24.30;57.60;;;;;;4943693;29;20405;-68
2021/09/15 09:09:49;;;;;;;3.88;3.22;;;24.30;57.60;;;;;;4944253;29;20396;-68
2021/09/15 09:12:16;;;;;;;3.45;3.15;;;24.30;57.60;;;;;;4944028;29;20886;-68
2021/09/15 09:14:43;;;;;;;3.20;2.90;;;24.30;57.60;;;;;;4943712;29;20397;-68
2021/09/15 09:17:25;;;;;;;3.38;3.05;;;24.30;57.60;;;;;;4944090;29;20909;-66
2021/09/15 09:20:11;;;;;;;3.60;3.22;;;24.30;57.60;;;;;;4943941;29;20887;-66
2021/09/15 09:23:05;;;;;;;3.95;3.03;;;24.30;57.60;;;;;;4943594;29;20431;-68
2021/09/15 09:26:01;;;;;;;3.58;3.25;;;24.30;57.60;;;;;;4943761;29;20398;-68
2021/09/15 09:28:28;;;;;;;4.25;3.13;;;24.30;57.60;;;;;;4939255;28;20409;-68
2021/09/15 09:31:00;;;;;;;3.67;3.30;;;24.30;57.60;;;;;;4942350;29;20414;-68
2021/09/15 09:33:27;;;;;;;3.47;3.07;;;24.30;57.60;;;;;;4943940;29;20482;-69
2021/09/15 09:35:58;;;;;;;3.97;3.20;;;24.30;57.60;;;;;;4944221;29;20571;-69
2021/09/15 09:38:27;;;;;;;3.58;3.15;;;24.30;57.60;;;;;;4943821;29;20763;-69
2021/09/15 09:41:03;;;;;;;3.42;3.13;;;24.30;57.70;;;;;;4943865;29;20390;-66
2021/09/15 09:43:31;;;;;;;3.88;3.20;;;24.30;57.70;;;;;;4943370;28;20430;-67
2021/09/15 09:45:57;;;;;;;3.80;3.17;;;24.40;57.80;;;;;;4946318;29;20394;-68
2021/09/15 09:48:30;;;;;;;3.65;3.30;;;24.30;57.80;;;;;;4945970;29;20431;-66
2021/09/15 09:50:55;;;;;;;3.97;3.40;;;24.30;57.70;;;;;;4946609;29;20402;-68
2021/09/15 09:53:21;;;;;;;3.35;3.05;;;24.30;57.70;;;;;;4947355;29;20758;-70
2021/09/15 09:55:49;;;;;;;4.10;3.20;;;24.30;57.50;;;;;;4947017;29;20492;-66
2021/09/15 09:58:21;;;;;;;3.95;3.17;;;24.30;57.70;;;;;;4947001;29;20425;-65
2021/09/15 10:00:47;;;;;;;3.60;3.30;;;24.30;57.70;;;;;;4946632;29;20408;-68
2021/09/15 10:03:13;;;;;;;3.70;3.17;;;24.30;57.70;;;;;;4947040;29;20433;-67
2021/09/15 10:05:39;;;;;;;3.67;3.37;;;24.30;57.70;;;;;;4946951;28;20476;-69
2021/09/15 10:08:07;;;;;;;3.90;3.35;;;24.30;57.60;;;;;;4947191;29;20390;-69
2021/09/15 10:10:33;;;;;;;3.72;3.30;;;24.40;57.70;;;;;;4946980;29;20619;-69
2021/09/15 10:12:58;;;;;;;3.50;3.10;;;24.30;57.60;;;;;;4946491;29;20413;-69
2021/09/15 10:15:24;;;;;;;3.78;3.20;;;24.30;57.60;;;;;;4946933;29;20400;-66
2021/09/15 10:17:53;;;;;;;3.10;2.80;;;24.40;57.60;;;;;;4946771;28;20449;-70
2021/09/15 10:20:28;;;;;;;3.42;3.10;;;24.40;57.60;;;;;;4946690;29;21234;-69
2021/09/15 10:22:54;;;;;;;3.67;3.13;;;24.40;57.50;;;;;;4946299;28;20480;-66
2021/09/15 10:25:35;;;;;;;3.80;3.50;;;24.40;57.50;;;;;;4946558;29;20398;-68
2021/09/15 10:28:05;;;;;;;3.83;3.33;;;24.40;57.50;;;;;;4946739;29;20438;-66
2021/09/15 10:30:40;;;;;;;3.90;3.13;;;24.40;57.50;;;;;;4946535;29;20412;-70
2021/09/15 10:33:06;;;;;;;3.47;3.17;;;24.40;57.40;;;;;;4946458;29;20402;-65
2021/09/15 10:35:47;;;;;;;3.50;3.20;;;24.40;57.40;;;;;;4945681;29;20977;-69
2021/09/15 10:38:14;;;;;;;3.58;3.28;;;24.40;57.40;;;;;;4946358;29;20762;-65
2021/09/15 10:40:42;;;;;;;3.58;3.28;;;24.40;57.40;;;;;;4946001;29;20405;-67
2021/09/15 10:43:40;;;;;;;3.80;3.20;;;24.40;57.40;;;;;;4945854;29;20499;-68
2021/09/15 10:46:20;;;;;;;3.70;3.30;;;24.40;57.40;;;;;;4946151;28;20537;-68
2021/09/15 10:49:06;;;;;;;3.90;3.50;;;24.40;57.40;;;;;;4945790;29;20806;-68
2021/09/15 10:51:31;;;;;;;3.85;3.50;;;24.40;57.40;;;;;;4946151;28;20895;-69
2021/09/15 10:53:57;;;;;;;3.70;3.30;;;24.40;57.40;;;;;;4945877;29;20398;-68
2021/09/15 10:56:35;;;;;;;3.50;3.20;;;24.40;57.40;;;;;;4960019;28;20811;-64
2021/09/15 10:59:01;;;;;;;4.18;3.35;;;24.40;57.40;;;;;;4945671;29;20869;-68
2021/09/15 11:01:38;;;;;;;3.33;3.03;;;24.40;57.40;;;;;;4945895;29;20410;-68
2021/09/15 11:04:03;;;;;;;4.07;3.38;;;24.40;57.40;;;;;;4960415;28;20429;-67
2021/09/15 11:06:35;;;;;;;3.60;3.30;;;24.40;57.40;;;;;;4946249;29;20408;-70
2021/09/15 11:09:01;;;;;;;3.67;3.33;;;24.40;57.40;;;;;;4945488;29;20398;-69
2021/09/15 11:11:26;;;;;;;3.83;3.30;;;24.40;57.40;;;;;;4960595;28;20898;-69
2021/09/15 11:14:00;;;;;;;3.60;3.30;;;24.40;57.40;;;;;;4945876;29;20414;-69
2021/09/15 11:16:28;;;;;;;3.88;3.47;;;24.40;57.50;;;;;;4945632;29;20411;-66
2021/09/15 11:19:18;;;;;;;3.58;3.20;;;24.40;57.40;;;;;;4944939;29;20795;-66
2021/09/15 11:21:51;;;;;;;3.70;3.40;;;24.40;57.40;;;;;;4945508;28;20394;-69
2021/09/15 11:24:26;;;;;;;3.58;3.28;;;24.40;57.40;;;;;;4945667;29;20714;-69
2021/09/15 11:26:58;;;;;;;3.85;3.45;;;24.40;57.40;;;;;;4945027;29;20410;-66
2021/09/15 11:29:44;;;;;;;3.90;3.30;;;24.40;57.40;;;;;;4945415;29;20382;-66
2021/09/15 11:32:15;;;;;;;3.80;3.40;;;24.40;57.40;;;;;;4945570;28;20492;-68
2021/09/15 11:34:46;;;;;;;4.15;3.42;;;24.40;57.40;;;;;;4944759;29;20400;-64
2021/09/15 11:37:20;;;;;;;3.63;3.30;;;24.40;57.40;;;;;;4944969;29;20453;-68
2021/09/15 11:39:55;;;;;;;3.90;3.50;;;24.40;57.40;;;;;;4945395;29;20763;-70
2021/09/15 11:42:23;;;;;;;3.78;3.30;;;24.40;57.40;;;;;;4944971;29;20430;-69
2021/09/15 11:44:49;;;;;;;3.67;3.35;;;24.40;57.40;;;;;;4944784;29;20402;-69
2021/09/15 11:47:23;;;;;;;3.50;3.20;;;24.40;57.40;;;;;;4945134;28;20421;-69
2021/09/15 11:49:48;;;;;;;3.65;3.35;;;24.40;57.30;;;;;;4936981;29;20468;-65
2021/09/15 11:52:14;;;;;;;3.60;3.30;;;24.40;57.30;;;;;;4945238;29;20405;-69
2021/09/15 11:54:42;;;;;;;3.78;3.45;;;24.40;57.40;;;;;;4944585;29;20551;-68
2021/09/15 11:57:09;;;;;;;3.57;3.20;;;24.50;57.40;;;;;;4944657;28;20447;-65
2021/09/15 11:59:35;;;;;;;4.50;3.40;;;24.40;57.40;;;;;;4944944;29;20408;-69
2021/09/15 12:02:03;;;;;;;3.85;3.00;;;24.40;57.40;;;;;;4944673;29;20434;-64
2021/09/15 12:04:30;;;;;;;5.68;4.10;;;24.40;57.40;;;;;;4945020;29;20404;-69
2021/09/15 12:06:57;;;;;;;4.65;3.50;;;24.50;57.50;;;;;;4943265;28;20410;-69
2021/09/15 12:09:24;;;;;;;4.13;3.63;;;24.50;57.40;;;;;;4944087;29;20453;-65
2021/09/15 12:11:50;;;;;;;3.72;3.40;;;24.50;57.50;;;;;;4944314;29;20398;-66
2021/09/15 12:14:16;;;;;;;4.38;3.45;;;24.50;57.50;;;;;;4944702;29;20405;-69
2021/09/15 12:16:43;;;;;;;6.00;3.23;;;24.50;57.50;;;;;;4943750;29;20406;-69
2021/09/15 12:19:16;;;;;;;4.93;3.40;;;24.50;57.50;;;;;;4944391;29;20437;-66
2021/09/15 12:21:44;;;;;;;6.72;3.95;;;24.50;57.60;;;;;;4944121;28;20401;-71
2021/09/15 12:24:10;;;;;;;5.25;4.00;;;24.50;57.50;;;;;;4944116;28;20430;-68
2021/09/15 12:26:36;;;;;;;6.43;4.32;;;24.50;57.50;;;;;;4943695;28;20456;-70
2021/09/15 12:29:05;;;;;;;5.43;4.57;;;24.50;57.60;;;;;;4943440;28;20406;-67
2021/09/15 12:31:45;;;;;;;4.97;4.43;;;24.60;57.70;;;;;;4943581;28;20479;-70
2021/09/15 12:34:11;;;;;;;4.80;4.30;;;24.50;58.20;;;;;;4944009;28;20786;-65
2021/09/15 12:36:37;;;;;;;5.75;4.70;;;24.50;57.90;;;;;;4943670;28;20397;-70
2021/09/15 12:39:12;;;;;;;4.93;4.35;;;24.50;57.90;;;;;;4942770;28;20468;-69
2021/09/15 12:41:56;;;;;;;5.40;4.35;;;24.50;58.00;;;;;;4943493;28;20401;-69
2021/09/15 12:44:31;;;;;;;5.57;4.25;;;24.60;58.00;;;;;;4941689;28;20504;-69
2021/09/15 12:46:56;;;;;;;5.72;4.07;;;24.60;58.00;;;;;;4942688;28;20461;-70
2021/09/15 12:49:30;;;;;;;4.93;4.43;;;24.60;57.90;;;;;;4957989;28;20501;-69
2021/09/15 12:52:05;;;;;;;4.43;4.03;;;24.60;57.90;;;;;;4942702;28;20394;-70
2021/09/15 12:54:32;;;;;;;4.80;4.18;;;24.60;57.90;;;;;;4943240;28;20911;-67